sensor_id;sensor_type;location;lat;lon;timestamp;P1;durP1;ratioP1;P2;durP2;ratioP2
12163;SDS011;6145;50.192;10.064;2023-06-22T00:01:18;8.17;;;7.40;;
12163;SDS011;6145;50.192;10.064;2023-06-22T00:03:46;7.83;;;7.03;;
12163;SDS011;6145;50.192;10.064;2023-06-22T00:06:13;8.93;;;8.10;;
12163;SDS011;6145;50.192;10.064;2023-06-22T00:08:40;7.60;;;6.97;;
12163;SDS011;6145;50.192;10.064;2023-06-22T00:11:07;7.40;;;6.60;;
12163;SDS011;6145;50.192;10.064;2023-06-22T00:13:33;8.00;;;7.20;;
12163;SDS011;6145;50.192;10.064;2023-06-22T00:16:00;7.87;;;7.23;;
12163;SDS011;6145;50.192;10.064;2023-06-22T00:18:28;10.60;;;7.87;;
12163;SDS011;6145;50.192;10.064;2023-06-22T00:20:56;8.40;;;7.60;;
12163;SDS011;6145;50.192;10.064;2023-06-22T00:23:23;8.20;;;7.47;;
12163;SDS011;6145;50.192;10.064;2023-06-22T00:25:51;7.43;;;6.67;;
12163;SDS011;6145;50.192;10.064;2023-06-22T00:28:36;7.20;;;6.50;;
12163;SDS011;6145;50.192;10.064;2023-06-22T00:31:03;7.23;;;6.40;;
12163;SDS011;6145;50.192;10.064;2023-06-22T00:33:31;7.50;;;6.77;;
12163;SDS011;6145;50.192;10.064;2023-06-22T00:35:58;7.27;;;6.67;;
12163;SDS011;6145;50.192;10.064;2023-06-22T00:38:24;9.60;;;7.40;;
12163;SDS011;6145;50.192;10.064;2023-06-22T00:40:51;7.73;;;7.03;;
12163;SDS011;6145;50.192;10.064;2023-06-22T00:43:18;7.97;;;7.17;;
12163;SDS011;6145;50.192;10.064;2023-06-22T00:45:45;8.27;;;7.47;;
12163;SDS011;6145;50.192;10.064;2023-06-22T00:48:12;7.63;;;6.60;;
12163;SDS011;6145;50.192;10.064;2023-06-22T00:50:42;8.17;;;7.37;;
12163;SDS011;6145;50.192;10.064;2023-06-22T00:53:09;7.63;;;6.33;;
12163;SDS011;6145;50.192;10.064;2023-06-22T00:55:37;8.17;;;7.37;;
12163;SDS011;6145;50.192;10.064;2023-06-22T00:58:04;9.37;;;8.27;;
12163;SDS011;6145;50.192;10.064;2023-06-22T01:00:35;8.73;;;7.33;;
12163;SDS011;6145;50.192;10.064;2023-06-22T01:03:02;9.07;;;7.67;;
12163;SDS011;6145;50.192;10.064;2023-06-22T01:05:33;9.17;;;7.00;;
12163;SDS011;6145;50.192;10.064;2023-06-22T01:08:07;7.23;;;6.53;;
12163;SDS011;6145;50.192;10.064;2023-06-22T01:10:43;8.43;;;7.60;;
12163;SDS011;6145;50.192;10.064;2023-06-22T01:13:18;8.23;;;7.50;;
12163;SDS011;6145;50.192;10.064;2023-06-22T01:15:55;8.17;;;7.50;;
12163;SDS011;6145;50.192;10.064;2023-06-22T01:18:26;7.07;;;6.50;;
12163;SDS011;6145;50.192;10.064;2023-06-22T01:20:57;7.60;;;6.90;;
12163;SDS011;6145;50.192;10.064;2023-06-22T01:23:27;7.80;;;7.00;;
12163;SDS011;6145;50.192;10.064;2023-06-22T01:26:04;8.00;;;7.30;;
12163;SDS011;6145;50.192;10.064;2023-06-22T01:28:42;8.00;;;7.20;;
12163;SDS011;6145;50.192;10.064;2023-06-22T01:31:11;7.10;;;6.47;;
12163;SDS011;6145;50.192;10.064;2023-06-22T01:33:41;9.00;;;6.87;;
12163;SDS011;6145;50.192;10.064;2023-06-22T01:36:10;7.43;;;6.73;;
12163;SDS011;6145;50.192;10.064;2023-06-22T01:38:38;7.73;;;7.03;;
12163;SDS011;6145;50.192;10.064;2023-06-22T01:41:08;7.70;;;7.00;;
12163;SDS011;6145;50.192;10.064;2023-06-22T01:43:35;7.23;;;6.43;;
12163;SDS011;6145;50.192;10.064;2023-06-22T01:46:04;8.57;;;7.67;;
12163;SDS011;6145;50.192;10.064;2023-06-22T01:48:31;8.93;;;7.87;;
12163;SDS011;6145;50.192;10.064;2023-06-22T01:50:58;7.87;;;7.13;;
12163;SDS011;6145;50.192;10.064;2023-06-22T01:53:25;8.63;;;7.80;;
12163;SDS011;6145;50.192;10.064;2023-06-22T01:55:52;8.00;;;7.23;;
12163;SDS011;6145;50.192;10.064;2023-06-22T01:58:19;7.63;;;6.93;;
12163;SDS011;6145;50.192;10.064;2023-06-22T02:00:50;9.40;;;8.27;;
12163;SDS011;6145;50.192;10.064;2023-06-22T02:03:23;9.70;;;8.70;;
12163;SDS011;6145;50.192;10.064;2023-06-22T02:05:56;9.33;;;8.53;;
12163;SDS011;6145;50.192;10.064;2023-06-22T02:08:28;9.83;;;8.93;;
12163;SDS011;6145;50.192;10.064;2023-06-22T02:10:57;8.73;;;8.03;;
12163;SDS011;6145;50.192;10.064;2023-06-22T02:13:25;8.60;;;7.70;;
12163;SDS011;6145;50.192;10.064;2023-06-22T02:15:53;9.00;;;7.63;;
12163;SDS011;6145;50.192;10.064;2023-06-22T02:18:21;7.60;;;6.87;;
12163;SDS011;6145;50.192;10.064;2023-06-22T02:20:50;8.60;;;7.70;;
12163;SDS011;6145;50.192;10.064;2023-06-22T02:23:17;9.00;;;8.20;;
12163;SDS011;6145;50.192;10.064;2023-06-22T02:25:44;11.60;;;8.23;;
12163;SDS011;6145;50.192;10.064;2023-06-22T02:28:11;9.97;;;8.20;;
12163;SDS011;6145;50.192;10.064;2023-06-22T02:30:38;8.97;;;8.17;;
12163;SDS011;6145;50.192;10.064;2023-06-22T02:33:05;9.23;;;8.43;;
12163;SDS011;6145;50.192;10.064;2023-06-22T02:35:33;9.73;;;8.20;;
12163;SDS011;6145;50.192;10.064;2023-06-22T02:38:01;10.70;;;7.53;;
12163;SDS011;6145;50.192;10.064;2023-06-22T02:40:29;10.53;;;7.83;;
12163;SDS011;6145;50.192;10.064;2023-06-22T02:42:57;9.97;;;8.97;;
12163;SDS011;6145;50.192;10.064;2023-06-22T02:45:26;10.13;;;9.13;;
12163;SDS011;6145;50.192;10.064;2023-06-22T02:47:53;9.80;;;8.90;;
12163;SDS011;6145;50.192;10.064;2023-06-22T02:50:21;8.33;;;7.53;;
12163;SDS011;6145;50.192;10.064;2023-06-22T02:52:49;8.60;;;7.80;;
12163;SDS011;6145;50.192;10.064;2023-06-22T02:55:16;9.07;;;7.87;;
12163;SDS011;6145;50.192;10.064;2023-06-22T02:57:43;8.63;;;7.83;;
12163;SDS011;6145;50.192;10.064;2023-06-22T03:00:12;8.10;;;7.37;;
12163;SDS011;6145;50.192;10.064;2023-06-22T03:02:42;8.77;;;7.97;;
12163;SDS011;6145;50.192;10.064;2023-06-22T03:05:12;9.40;;;8.40;;
12163;SDS011;6145;50.192;10.064;2023-06-22T03:07:40;8.27;;;7.47;;
12163;SDS011;6145;50.192;10.064;2023-06-22T03:10:09;7.87;;;7.17;;
12163;SDS011;6145;50.192;10.064;2023-06-22T03:12:37;8.40;;;7.60;;
12163;SDS011;6145;50.192;10.064;2023-06-22T03:15:05;8.40;;;7.60;;
12163;SDS011;6145;50.192;10.064;2023-06-22T03:17:33;9.00;;;8.10;;
12163;SDS011;6145;50.192;10.064;2023-06-22T03:20:00;8.60;;;7.80;;
12163;SDS011;6145;50.192;10.064;2023-06-22T03:22:31;8.37;;;7.60;;
12163;SDS011;6145;50.192;10.064;2023-06-22T03:24:58;8.67;;;7.90;;
12163;SDS011;6145;50.192;10.064;2023-06-22T03:27:26;9.67;;;8.17;;
12163;SDS011;6145;50.192;10.064;2023-06-22T03:29:53;8.90;;;8.07;;
12163;SDS011;6145;50.192;10.064;2023-06-22T03:32:20;9.97;;;9.00;;
12163;SDS011;6145;50.192;10.064;2023-06-22T03:34:46;9.27;;;8.47;;
12163;SDS011;6145;50.192;10.064;2023-06-22T03:37:14;9.33;;;8.40;;
12163;SDS011;6145;50.192;10.064;2023-06-22T03:39:41;11.30;;;8.40;;
12163;SDS011;6145;50.192;10.064;2023-06-22T03:42:08;8.93;;;8.13;;
12163;SDS011;6145;50.192;10.064;2023-06-22T03:44:36;8.93;;;8.13;;
12163;SDS011;6145;50.192;10.064;2023-06-22T03:47:03;8.50;;;7.63;;
12163;SDS011;6145;50.192;10.064;2023-06-22T03:49:32;9.23;;;8.40;;
12163;SDS011;6145;50.192;10.064;2023-06-22T03:51:59;9.63;;;8.83;;
12163;SDS011;6145;50.192;10.064;2023-06-22T03:54:27;8.17;;;7.37;;
12163;SDS011;6145;50.192;10.064;2023-06-22T03:56:54;8.90;;;8.20;;
12163;SDS011;6145;50.192;10.064;2023-06-22T03:59:22;8.50;;;7.80;;
12163;SDS011;6145;50.192;10.064;2023-06-22T04:01:50;8.90;;;8.03;;
12163;SDS011;6145;50.192;10.064;2023-06-22T04:04:17;9.27;;;8.47;;
12163;SDS011;6145;50.192;10.064;2023-06-22T04:06:44;10.00;;;9.00;;
12163;SDS011;6145;50.192;10.064;2023-06-22T04:09:11;9.10;;;8.10;;
12163;SDS011;6145;50.192;10.064;2023-06-22T04:11:38;8.90;;;8.10;;
12163;SDS011;6145;50.192;10.064;2023-06-22T04:14:05;8.77;;;7.97;;
12163;SDS011;6145;50.192;10.064;2023-06-22T04:16:32;9.03;;;8.13;;
12163;SDS011;6145;50.192;10.064;2023-06-22T04:19:00;7.97;;;7.23;;
12163;SDS011;6145;50.192;10.064;2023-06-22T04:21:27;10.10;;;9.10;;
12163;SDS011;6145;50.192;10.064;2023-06-22T04:23:54;9.20;;;8.07;;
12163;SDS011;6145;50.192;10.064;2023-06-22T04:26:21;8.77;;;7.83;;
12163;SDS011;6145;50.192;10.064;2023-06-22T04:28:48;9.93;;;8.90;;
12163;SDS011;6145;50.192;10.064;2023-06-22T04:31:16;8.90;;;8.00;;
12163;SDS011;6145;50.192;10.064;2023-06-22T04:33:43;8.23;;;7.43;;
12163;SDS011;6145;50.192;10.064;2023-06-22T04:36:11;8.87;;;7.97;;
12163;SDS011;6145;50.192;10.064;2023-06-22T04:38:39;7.87;;;7.10;;
12163;SDS011;6145;50.192;10.064;2023-06-22T04:41:07;8.90;;;7.67;;
12163;SDS011;6145;50.192;10.064;2023-06-22T04:43:39;9.10;;;8.00;;
12163;SDS011;6145;50.192;10.064;2023-06-22T04:46:06;8.83;;;8.03;;
12163;SDS011;6145;50.192;10.064;2023-06-22T04:48:32;9.30;;;8.30;;
12163;SDS011;6145;50.192;10.064;2023-06-22T04:50:59;9.97;;;8.53;;
12163;SDS011;6145;50.192;10.064;2023-06-22T04:53:30;9.73;;;7.50;;
12163;SDS011;6145;50.192;10.064;2023-06-22T04:55:57;9.73;;;8.73;;
12163;SDS011;6145;50.192;10.064;2023-06-22T04:58:24;8.67;;;7.87;;
12163;SDS011;6145;50.192;10.064;2023-06-22T05:00:53;9.73;;;8.83;;
12163;SDS011;6145;50.192;10.064;2023-06-22T05:03:22;9.53;;;8.53;;
12163;SDS011;6145;50.192;10.064;2023-06-22T05:05:52;9.60;;;8.70;;
12163;SDS011;6145;50.192;10.064;2023-06-22T05:08:19;10.10;;;8.33;;
12163;SDS011;6145;50.192;10.064;2023-06-22T05:10:48;8.17;;;7.47;;
12163;SDS011;6145;50.192;10.064;2023-06-22T05:13:15;8.70;;;7.90;;
12163;SDS011;6145;50.192;10.064;2023-06-22T05:15:42;9.53;;;8.63;;
12163;SDS011;6145;50.192;10.064;2023-06-22T05:18:09;8.67;;;7.87;;
12163;SDS011;6145;50.192;10.064;2023-06-22T05:20:36;8.97;;;8.07;;
12163;SDS011;6145;50.192;10.064;2023-06-22T05:23:03;10.30;;;8.57;;
12163;SDS011;6145;50.192;10.064;2023-06-22T05:25:30;9.70;;;8.80;;
12163;SDS011;6145;50.192;10.064;2023-06-22T05:27:59;9.63;;;8.73;;
12163;SDS011;6145;50.192;10.064;2023-06-22T05:30:26;10.03;;;9.03;;
12163;SDS011;6145;50.192;10.064;2023-06-22T05:32:53;9.47;;;8.57;;
12163;SDS011;6145;50.192;10.064;2023-06-22T05:35:20;9.00;;;8.20;;
12163;SDS011;6145;50.192;10.064;2023-06-22T05:37:47;12.00;;;10.80;;
12163;SDS011;6145;50.192;10.064;2023-06-22T05:40:14;9.23;;;8.43;;
12163;SDS011;6145;50.192;10.064;2023-06-22T05:42:43;10.40;;;9.48;;
12163;SDS011;6145;50.192;10.064;2023-06-22T05:45:11;9.25;;;8.45;;
12163;SDS011;6145;50.192;10.064;2023-06-22T05:47:38;10.30;;;8.65;;
12163;SDS011;6145;50.192;10.064;2023-06-22T05:50:11;10.77;;;9.60;;
12163;SDS011;6145;50.192;10.064;2023-06-22T05:52:38;8.82;;;8.02;;
12163;SDS011;6145;50.192;10.064;2023-06-22T05:55:08;10.25;;;9.38;;
12163;SDS011;6145;50.192;10.064;2023-06-22T05:57:44;10.85;;;9.82;;
12163;SDS011;6145;50.192;10.064;2023-06-22T06:00:13;9.15;;;8.45;;
12163;SDS011;6145;50.192;10.064;2023-06-22T06:02:43;9.50;;;8.70;;
12163;SDS011;6145;50.192;10.064;2023-06-22T06:05:10;10.90;;;9.90;;
12163;SDS011;6145;50.192;10.064;2023-06-22T06:07:38;9.65;;;8.80;;
12163;SDS011;6145;50.192;10.064;2023-06-22T06:10:08;10.27;;;9.38;;
12163;SDS011;6145;50.192;10.064;2023-06-22T06:12:36;9.40;;;8.50;;
12163;SDS011;6145;50.192;10.064;2023-06-22T06:15:05;9.68;;;8.90;;
12163;SDS011;6145;50.192;10.064;2023-06-22T06:17:34;9.90;;;9.07;;
12163;SDS011;6145;50.192;10.064;2023-06-22T06:20:04;10.07;;;9.27;;
12163;SDS011;6145;50.192;10.064;2023-06-22T06:22:32;9.63;;;8.82;;
12163;SDS011;6145;50.192;10.064;2023-06-22T06:24:59;9.98;;;9.25;;
12163;SDS011;6145;50.192;10.064;2023-06-22T06:27:27;9.13;;;8.40;;
12163;SDS011;6145;50.192;10.064;2023-06-22T06:29:55;10.80;;;9.80;;
12163;SDS011;6145;50.192;10.064;2023-06-22T06:32:22;9.20;;;8.43;;
12163;SDS011;6145;50.192;10.064;2023-06-22T06:34:50;10.45;;;9.55;;
12163;SDS011;6145;50.192;10.064;2023-06-22T06:37:17;9.80;;;9.00;;
12163;SDS011;6145;50.192;10.064;2023-06-22T06:39:44;9.82;;;8.98;;
12163;SDS011;6145;50.192;10.064;2023-06-22T06:42:11;10.27;;;9.23;;
12163;SDS011;6145;50.192;10.064;2023-06-22T06:44:38;9.07;;;8.15;;
12163;SDS011;6145;50.192;10.064;2023-06-22T06:47:05;8.70;;;8.07;;
12163;SDS011;6145;50.192;10.064;2023-06-22T06:49:34;9.30;;;8.40;;
12163;SDS011;6145;50.192;10.064;2023-06-22T06:52:03;8.32;;;7.40;;
12163;SDS011;6145;50.192;10.064;2023-06-22T06:54:30;8.13;;;7.45;;
12163;SDS011;6145;50.192;10.064;2023-06-22T06:56:57;10.68;;;8.25;;
12163;SDS011;6145;50.192;10.064;2023-06-22T06:59:24;9.15;;;8.23;;
12163;SDS011;6145;50.192;10.064;2023-06-22T07:01:51;8.20;;;7.43;;
12163;SDS011;6145;50.192;10.064;2023-06-22T07:04:17;9.38;;;8.52;;
12163;SDS011;6145;50.192;10.064;2023-06-22T07:06:44;9.48;;;8.73;;
12163;SDS011;6145;50.192;10.064;2023-06-22T07:09:12;9.10;;;8.23;;
12163;SDS011;6145;50.192;10.064;2023-06-22T07:11:39;8.88;;;7.97;;
12163;SDS011;6145;50.192;10.064;2023-06-22T07:14:06;8.63;;;7.93;;
12163;SDS011;6145;50.192;10.064;2023-06-22T07:16:34;8.57;;;7.70;;
12163;SDS011;6145;50.192;10.064;2023-06-22T07:19:02;8.43;;;7.60;;
12163;SDS011;6145;50.192;10.064;2023-06-22T07:21:29;8.48;;;7.78;;
12163;SDS011;6145;50.192;10.064;2023-06-22T07:23:56;8.55;;;7.68;;
12163;SDS011;6145;50.192;10.064;2023-06-22T07:26:24;8.77;;;8.07;;
12163;SDS011;6145;50.192;10.064;2023-06-22T07:28:50;7.75;;;7.05;;
12163;SDS011;6145;50.192;10.064;2023-06-22T07:31:17;9.02;;;8.27;;
12163;SDS011;6145;50.192;10.064;2023-06-22T07:33:46;8.73;;;8.00;;
12163;SDS011;6145;50.192;10.064;2023-06-22T07:36:12;8.38;;;7.70;;
12163;SDS011;6145;50.192;10.064;2023-06-22T07:38:39;9.18;;;8.43;;
12163;SDS011;6145;50.192;10.064;2023-06-22T07:41:06;8.75;;;7.90;;
12163;SDS011;6145;50.192;10.064;2023-06-22T07:43:34;8.75;;;8.15;;
12163;SDS011;6145;50.192;10.064;2023-06-22T07:46:02;8.82;;;8.13;;
12163;SDS011;6145;50.192;10.064;2023-06-22T07:48:29;8.70;;;7.85;;
12163;SDS011;6145;50.192;10.064;2023-06-22T07:50:56;8.68;;;7.88;;
12163;SDS011;6145;50.192;10.064;2023-06-22T07:53:23;9.05;;;8.18;;
12163;SDS011;6145;50.192;10.064;2023-06-22T07:55:50;8.43;;;7.82;;
12163;SDS011;6145;50.192;10.064;2023-06-22T07:58:17;9.00;;;8.07;;
12163;SDS011;6145;50.192;10.064;2023-06-22T08:00:46;9.45;;;8.55;;
12163;SDS011;6145;50.192;10.064;2023-06-22T08:03:14;8.93;;;8.23;;
12163;SDS011;6145;50.192;10.064;2023-06-22T08:05:41;9.02;;;8.32;;
12163;SDS011;6145;50.192;10.064;2023-06-22T08:08:08;9.02;;;8.32;;
12163;SDS011;6145;50.192;10.064;2023-06-22T08:10:35;8.77;;;7.88;;
12163;SDS011;6145;50.192;10.064;2023-06-22T08:13:01;9.73;;;8.93;;
12163;SDS011;6145;50.192;10.064;2023-06-22T08:15:28;8.65;;;7.85;;
12163;SDS011;6145;50.192;10.064;2023-06-22T08:17:56;7.93;;;7.32;;
12163;SDS011;6145;50.192;10.064;2023-06-22T08:20:24;9.20;;;8.40;;
12163;SDS011;6145;50.192;10.064;2023-06-22T08:22:50;8.63;;;7.82;;
12163;SDS011;6145;50.192;10.064;2023-06-22T08:25:17;9.32;;;8.50;;
12163;SDS011;6145;50.192;10.064;2023-06-22T08:27:44;9.15;;;8.45;;
12163;SDS011;6145;50.192;10.064;2023-06-22T08:30:13;8.15;;;7.45;;
12163;SDS011;6145;50.192;10.064;2023-06-22T08:32:47;9.10;;;8.40;;
12163;SDS011;6145;50.192;10.064;2023-06-22T08:35:15;9.27;;;8.38;;
12163;SDS011;6145;50.192;10.064;2023-06-22T08:37:42;8.90;;;8.10;;
12163;SDS011;6145;50.192;10.064;2023-06-22T08:40:15;9.13;;;7.70;;
12163;SDS011;6145;50.192;10.064;2023-06-22T08:42:42;8.43;;;7.72;;
12163;SDS011;6145;50.192;10.064;2023-06-22T08:45:09;8.98;;;8.07;;
12163;SDS011;6145;50.192;10.064;2023-06-22T08:47:36;8.23;;;7.40;;
12163;SDS011;6145;50.192;10.064;2023-06-22T08:50:04;7.82;;;7.22;;
12163;SDS011;6145;50.192;10.064;2023-06-22T08:52:34;8.60;;;7.70;;
12163;SDS011;6145;50.192;10.064;2023-06-22T08:55:01;7.53;;;6.93;;
12163;SDS011;6145;50.192;10.064;2023-06-22T08:57:29;8.13;;;7.43;;
12163;SDS011;6145;50.192;10.064;2023-06-22T08:59:57;8.45;;;7.75;;
12163;SDS011;6145;50.192;10.064;2023-06-22T09:02:25;7.65;;;6.97;;
12163;SDS011;6145;50.192;10.064;2023-06-22T09:04:55;9.18;;;7.35;;
12163;SDS011;6145;50.192;10.064;2023-06-22T09:07:22;7.90;;;6.97;;
12163;SDS011;6145;50.192;10.064;2023-06-22T09:09:51;8.73;;;7.93;;
12163;SDS011;6145;50.192;10.064;2023-06-22T09:12:19;8.35;;;7.50;;
12163;SDS011;6145;50.192;10.064;2023-06-22T09:14:50;8.10;;;7.45;;
12163;SDS011;6145;50.192;10.064;2023-06-22T09:17:17;8.52;;;7.82;;
12163;SDS011;6145;50.192;10.064;2023-06-22T09:19:44;7.60;;;7.00;;
12163;SDS011;6145;50.192;10.064;2023-06-22T09:22:11;8.23;;;7.53;;
12163;SDS011;6145;50.192;10.064;2023-06-22T09:24:38;8.77;;;8.00;;
12163;SDS011;6145;50.192;10.064;2023-06-22T09:27:06;9.60;;;8.48;;
12163;SDS011;6145;50.192;10.064;2023-06-22T09:29:33;8.07;;;7.45;;
12163;SDS011;6145;50.192;10.064;2023-06-22T09:32:00;9.05;;;8.25;;
12163;SDS011;6145;50.192;10.064;2023-06-22T09:34:26;10.30;;;8.75;;
12163;SDS011;6145;50.192;10.064;2023-06-22T09:36:53;8.60;;;7.90;;
12163;SDS011;6145;50.192;10.064;2023-06-22T09:39:22;8.75;;;8.02;;
12163;SDS011;6145;50.192;10.064;2023-06-22T09:41:49;8.75;;;8.07;;
12163;SDS011;6145;50.192;10.064;2023-06-22T09:44:17;8.32;;;7.63;;
12163;SDS011;6145;50.192;10.064;2023-06-22T09:46:44;7.93;;;7.22;;
12163;SDS011;6145;50.192;10.064;2023-06-22T09:49:11;9.07;;;8.38;;
12163;SDS011;6145;50.192;10.064;2023-06-22T09:51:38;9.65;;;8.75;;
12163;SDS011;6145;50.192;10.064;2023-06-22T09:54:04;9.35;;;8.18;;
12163;SDS011;6145;50.192;10.064;2023-06-22T09:56:31;9.30;;;8.50;;
12163;SDS011;6145;50.192;10.064;2023-06-22T09:58:58;9.57;;;8.73;;
12163;SDS011;6145;50.192;10.064;2023-06-22T10:01:26;9.18;;;8.48;;
12163;SDS011;6145;50.192;10.064;2023-06-22T10:03:53;8.77;;;8.00;;
12163;SDS011;6145;50.192;10.064;2023-06-22T10:06:21;8.52;;;7.93;;
12163;SDS011;6145;50.192;10.064;2023-06-22T10:08:50;9.20;;;8.43;;
12163;SDS011;6145;50.192;10.064;2023-06-22T10:11:20;9.68;;;8.88;;
12163;SDS011;6145;50.192;10.064;2023-06-22T10:13:52;9.30;;;8.50;;
12163;SDS011;6145;50.192;10.064;2023-06-22T10:16:18;9.18;;;8.45;;
12163;SDS011;6145;50.192;10.064;2023-06-22T10:18:48;10.07;;;9.18;;
12163;SDS011;6145;50.192;10.064;2023-06-22T10:21:14;10.23;;;9.27;;
12163;SDS011;6145;50.192;10.064;2023-06-22T10:23:41;9.82;;;8.95;;
12163;SDS011;6145;50.192;10.064;2023-06-22T10:26:08;9.00;;;8.20;;
12163;SDS011;6145;50.192;10.064;2023-06-22T10:28:35;9.50;;;8.65;;
12163;SDS011;6145;50.192;10.064;2023-06-22T10:31:02;10.07;;;9.20;;
12163;SDS011;6145;50.192;10.064;2023-06-22T10:33:28;9.02;;;8.18;;
12163;SDS011;6145;50.192;10.064;2023-06-22T10:35:56;9.25;;;8.45;;
12163;SDS011;6145;50.192;10.064;2023-06-22T10:38:23;8.85;;;8.07;;
12163;SDS011;6145;50.192;10.064;2023-06-22T10:40:50;9.05;;;8.27;;
12163;SDS011;6145;50.192;10.064;2023-06-22T10:43:17;9.10;;;8.27;;
12163;SDS011;6145;50.192;10.064;2023-06-22T10:45:44;9.05;;;8.13;;
12163;SDS011;6145;50.192;10.064;2023-06-22T10:48:11;9.80;;;8.85;;
12163;SDS011;6145;50.192;10.064;2023-06-22T10:50:38;9.30;;;8.57;;
12163;SDS011;6145;50.192;10.064;2023-06-22T10:53:06;9.63;;;8.80;;
12163;SDS011;6145;50.192;10.064;2023-06-22T10:55:33;10.05;;;7.88;;
12163;SDS011;6145;50.192;10.064;2023-06-22T10:58:00;8.88;;;8.18;;
12163;SDS011;6145;50.192;10.064;2023-06-22T11:00:26;8.50;;;7.82;;
12163;SDS011;6145;50.192;10.064;2023-06-22T11:02:53;8.32;;;7.63;;
12163;SDS011;6145;50.192;10.064;2023-06-22T11:05:20;8.73;;;8.02;;
12163;SDS011;6145;50.192;10.064;2023-06-22T11:07:47;8.07;;;7.30;;
12163;SDS011;6145;50.192;10.064;2023-06-22T11:10:16;8.60;;;7.90;;
12163;SDS011;6145;50.192;10.064;2023-06-22T11:12:42;9.70;;;8.70;;
12163;SDS011;6145;50.192;10.064;2023-06-22T11:15:09;8.25;;;7.55;;
12163;SDS011;6145;50.192;10.064;2023-06-22T11:17:36;8.70;;;7.80;;
12163;SDS011;6145;50.192;10.064;2023-06-22T11:20:03;9.25;;;8.45;;
12163;SDS011;6145;50.192;10.064;2023-06-22T11:22:35;9.38;;;8.57;;
12163;SDS011;6145;50.192;10.064;2023-06-22T11:25:02;8.57;;;7.88;;
12163;SDS011;6145;50.192;10.064;2023-06-22T11:27:31;8.65;;;7.78;;
12163;SDS011;6145;50.192;10.064;2023-06-22T11:29:58;9.40;;;8.40;;
12163;SDS011;6145;50.192;10.064;2023-06-22T11:32:25;9.35;;;8.55;;
12163;SDS011;6145;50.192;10.064;2023-06-22T11:34:52;9.23;;;8.40;;
12163;SDS011;6145;50.192;10.064;2023-06-22T11:37:19;7.95;;;7.22;;
12163;SDS011;6145;50.192;10.064;2023-06-22T11:39:46;9.15;;;8.48;;
12163;SDS011;6145;50.192;10.064;2023-06-22T11:42:13;10.82;;;8.88;;
12163;SDS011;6145;50.192;10.064;2023-06-22T11:44:41;8.63;;;7.93;;
12163;SDS011;6145;50.192;10.064;2023-06-22T11:47:08;8.27;;;7.57;;
12163;SDS011;6145;50.192;10.064;2023-06-22T11:49:36;8.57;;;7.85;;
12163;SDS011;6145;50.192;10.064;2023-06-22T11:52:03;8.63;;;7.82;;
12163;SDS011;6145;50.192;10.064;2023-06-22T11:54:30;8.93;;;8.13;;
12163;SDS011;6145;50.192;10.064;2023-06-22T11:56:57;17.58;;;7.88;;
12163;SDS011;6145;50.192;10.064;2023-06-22T11:59:23;8.50;;;7.80;;
12163;SDS011;6145;50.192;10.064;2023-06-22T12:01:51;9.52;;;8.63;;
12163;SDS011;6145;50.192;10.064;2023-06-22T12:04:18;8.63;;;7.85;;
12163;SDS011;6145;50.192;10.064;2023-06-22T12:06:45;9.35;;;8.48;;
12163;SDS011;6145;50.192;10.064;2023-06-22T12:09:12;8.15;;;7.45;;
12163;SDS011;6145;50.192;10.064;2023-06-22T12:11:39;9.02;;;8.15;;
12163;SDS011;6145;50.192;10.064;2023-06-22T12:14:06;8.65;;;8.05;;
12163;SDS011;6145;50.192;10.064;2023-06-22T12:16:33;8.13;;;7.45;;
12163;SDS011;6145;50.192;10.064;2023-06-22T12:19:01;8.27;;;7.47;;
12163;SDS011;6145;50.192;10.064;2023-06-22T12:21:28;8.45;;;7.75;;
12163;SDS011;6145;50.192;10.064;2023-06-22T12:23:55;8.93;;;8.18;;
12163;SDS011;6145;50.192;10.064;2023-06-22T12:26:21;8.32;;;7.57;;
12163;SDS011;6145;50.192;10.064;2023-06-22T12:28:48;9.18;;;8.27;;
12163;SDS011;6145;50.192;10.064;2023-06-22T12:31:15;8.73;;;8.05;;
12163;SDS011;6145;50.192;10.064;2023-06-22T12:33:42;8.02;;;7.32;;
12163;SDS011;6145;50.192;10.064;2023-06-22T12:36:10;9.88;;;8.20;;
12163;SDS011;6145;50.192;10.064;2023-06-22T12:38:37;8.38;;;7.68;;
12163;SDS011;6145;50.192;10.064;2023-06-22T12:41:03;8.02;;;7.40;;
12163;SDS011;6145;50.192;10.064;2023-06-22T12:43:30;8.02;;;7.25;;
12163;SDS011;6145;50.192;10.064;2023-06-22T12:45:57;7.95;;;7.25;;
12163;SDS011;6145;50.192;10.064;2023-06-22T12:48:25;7.38;;;6.75;;
12163;SDS011;6145;50.192;10.064;2023-06-22T12:50:52;7.95;;;6.85;;
12163;SDS011;6145;50.192;10.064;2023-06-22T12:53:20;7.72;;;7.03;;
12163;SDS011;6145;50.192;10.064;2023-06-22T12:55:48;7.78;;;7.05;;
12163;SDS011;6145;50.192;10.064;2023-06-22T12:58:15;7.25;;;6.55;;
12163;SDS011;6145;50.192;10.064;2023-06-22T13:00:42;7.40;;;6.70;;
12163;SDS011;6145;50.192;10.064;2023-06-22T13:03:09;7.00;;;6.40;;
12163;SDS011;6145;50.192;10.064;2023-06-22T13:05:35;7.20;;;6.50;;
12163;SDS011;6145;50.192;10.064;2023-06-22T13:08:03;7.32;;;6.60;;
12163;SDS011;6145;50.192;10.064;2023-06-22T13:10:31;7.32;;;6.72;;
12163;SDS011;6145;50.192;10.064;2023-06-22T13:12:58;7.75;;;7.07;;
12163;SDS011;6145;50.192;10.064;2023-06-22T13:15:26;7.05;;;6.43;;
12163;SDS011;6145;50.192;10.064;2023-06-22T13:17:53;8.68;;;6.30;;
12163;SDS011;6145;50.192;10.064;2023-06-22T13:20:21;7.68;;;6.90;;
12163;SDS011;6145;50.192;10.064;2023-06-22T13:22:48;7.10;;;6.38;;
12163;SDS011;6145;50.192;10.064;2023-06-22T13:25:15;7.30;;;6.55;;
12163;SDS011;6145;50.192;10.064;2023-06-22T13:27:45;8.20;;;6.82;;
12163;SDS011;6145;50.192;10.064;2023-06-22T13:30:12;8.27;;;6.32;;
12163;SDS011;6145;50.192;10.064;2023-06-22T13:32:39;7.30;;;6.45;;
12163;SDS011;6145;50.192;10.064;2023-06-22T13:35:07;6.72;;;5.90;;
12163;SDS011;6145;50.192;10.064;2023-06-22T13:37:34;11.50;;;7.00;;
12163;SDS011;6145;50.192;10.064;2023-06-22T13:40:01;7.35;;;6.43;;
12163;SDS011;6145;50.192;10.064;2023-06-22T13:42:30;6.82;;;6.10;;
12163;SDS011;6145;50.192;10.064;2023-06-22T13:44:58;7.20;;;6.60;;
12163;SDS011;6145;50.192;10.064;2023-06-22T13:47:25;7.45;;;6.75;;
12163;SDS011;6145;50.192;10.064;2023-06-22T13:49:52;8.05;;;6.65;;
12163;SDS011;6145;50.192;10.064;2023-06-22T13:52:19;6.97;;;6.03;;
12163;SDS011;6145;50.192;10.064;2023-06-22T13:54:46;9.95;;;7.20;;
12163;SDS011;6145;50.192;10.064;2023-06-22T13:57:13;7.63;;;6.70;;
12163;SDS011;6145;50.192;10.064;2023-06-22T13:59:40;7.30;;;6.70;;
12163;SDS011;6145;50.192;10.064;2023-06-22T14:02:08;6.32;;;5.80;;
12163;SDS011;6145;50.192;10.064;2023-06-22T14:04:34;10.95;;;6.88;;
12163;SDS011;6145;50.192;10.064;2023-06-22T14:07:01;7.85;;;6.57;;
12163;SDS011;6145;50.192;10.064;2023-06-22T14:09:28;6.78;;;6.13;;
12163;SDS011;6145;50.192;10.064;2023-06-22T14:11:55;9.90;;;6.38;;
12163;SDS011;6145;50.192;10.064;2023-06-22T14:14:22;6.25;;;5.57;;
12163;SDS011;6145;50.192;10.064;2023-06-22T14:16:48;6.85;;;6.18;;
12163;SDS011;6145;50.192;10.064;2023-06-22T14:19:18;5.93;;;5.35;;
12163;SDS011;6145;50.192;10.064;2023-06-22T14:21:44;6.72;;;6.05;;
12163;SDS011;6145;50.192;10.064;2023-06-22T14:24:11;7.13;;;6.43;;
12163;SDS011;6145;50.192;10.064;2023-06-22T14:26:38;11.05;;;6.47;;
12163;SDS011;6145;50.192;10.064;2023-06-22T14:29:05;6.78;;;5.90;;
12163;SDS011;6145;50.192;10.064;2023-06-22T14:31:31;7.18;;;6.40;;
12163;SDS011;6145;50.192;10.064;2023-06-22T14:33:58;9.18;;;6.53;;
12163;SDS011;6145;50.192;10.064;2023-06-22T14:36:29;6.75;;;5.93;;
12163;SDS011;6145;50.192;10.064;2023-06-22T14:38:55;6.65;;;5.60;;
12163;SDS011;6145;50.192;10.064;2023-06-22T14:41:22;7.40;;;5.63;;
12163;SDS011;6145;50.192;10.064;2023-06-22T14:43:49;6.65;;;5.47;;
12163;SDS011;6145;50.192;10.064;2023-06-22T14:46:17;6.75;;;5.95;;
12163;SDS011;6145;50.192;10.064;2023-06-22T14:48:45;6.75;;;6.00;;